Time;durP1;ratioP1;P1;durP2;ratioP2;P2;SDS_P1;SDS_P2;PMS_P1;PMS_P2;Temp;Humidity;BMP_temperature;BMP_pressure;BME280_temperature;BME280_humidity;BME280_pressure;Samples;Min_cycle;Max_cycle;Signal;HPM_P1;HPM_P2
2021/06/16 00:00:49;;;;;;;7.2;3.7;;;;;;;20.1;42.2;101540;;;;
2021/06/16 00:02:49;;;;;;;7.2;3.7;;;;;;;20.0;42.3;101550;;;;
2021/06/16 00:04:49;;;;;;;5.1;3.0;;;;;;;20.1;42.0;101550;;;;
2021/06/16 00:06:51;;;;;;;5.1;3.0;;;;;;;20.0;42.3;101540;;;;
2021/06/16 00:08:49;;;;;;;5.1;3.0;;;;;;;19.9;42.8;101540;;;;
2021/06/16 00:10:49;;;;;;;5.1;3.0;;;;;;;19.8;43.3;101540;;;;
2021/06/16 00:12:49;;;;;;;5.1;3.0;;;;;;;19.9;42.2;101540;;;;
2021/06/16 00:14:49;;;;;;;5.1;3.0;;;;;;;19.7;43.3;101540;;;;
2021/06/16 00:18:49;;;;;;;5.1;3.0;;;;;;;19.9;42.2;101530;;;;
2021/06/16 00:20:49;;;;;;;5.1;3.0;;;;;;;19.8;42.7;101540;;;;
2021/06/16 00:22:49;;;;;;;5.1;3.0;;;;;;;19.9;42.0;101530;;;;
2021/06/16 00:24:49;;;;;;;6.4;3.1;;;;;;;20.0;42.5;101530;;;;
2021/06/16 00:26:49;;;;;;;6.4;3.1;;;;;;;19.6;43.4;101530;;;;
2021/06/16 00:28:49;;;;;;;6.4;3.1;;;;;;;19.4;43.4;101530;;;;
2021/06/16 00:30:49;;;;;;;6.4;3.1;;;;;;;19.6;43.1;101530;;;;
2021/06/16 00:34:49;;;;;;;6.4;3.1;;;;;;;19.4;44.5;101520;;;;
2021/06/16 00:36:49;;;;;;;6.4;3.1;;;;;;;19.2;44.4;101520;;;;
2021/06/16 00:38:49;;;;;;;6.4;3.1;;;;;;;19.4;43.6;101520;;;;
2021/06/16 00:40:50;;;;;;;6.4;3.1;;;;;;;19.3;44.8;101520;;;;
2021/06/16 00:42:49;;;;;;;6.4;3.1;;;;;;;19.2;44.6;101520;;;;
2021/06/16 00:44:49;;;;;;;9.8;3.7;;;;;;;19.5;43.1;101520;;;;
2021/06/16 00:48:49;;;;;;;9.8;3.7;;;;;;;19.4;44.3;101520;;;;
2021/06/16 00:50:49;;;;;;;9.8;3.7;;;;;;;19.3;43.8;101520;;;;
2021/06/16 00:54:49;;;;;;;9.8;3.7;;;;;;;19.1;44.7;101520;;;;
2021/06/16 00:56:49;;;;;;;9.8;3.7;;;;;;;19.2;44.0;101520;;;;
2021/06/16 01:00:49;;;;;;;9.8;3.7;;;;;;;19.1;43.8;101510;;;;
2021/06/16 01:02:49;;;;;;;9.8;3.7;;;;;;;19.3;43.5;101500;;;;
2021/06/16 01:06:49;;;;;;;7.8;4.3;;;;;;;19.2;43.7;101500;;;;
2021/06/16 01:10:49;;;;;;;7.8;4.3;;;;;;;19.3;44.0;101500;;;;
2021/06/16 01:12:49;;;;;;;7.8;4.3;;;;;;;19.0;44.7;101500;;;;
2021/06/16 01:14:49;;;;;;;7.8;4.3;;;;;;;19.1;44.5;101500;;;;
2021/06/16 01:20:49;;;;;;;7.8;4.3;;;;;;;18.9;46.5;101510;;;;
2021/06/16 01:24:49;;;;;;;7.9;4.1;;;;;;;19.1;44.6;101500;;;;
2021/06/16 01:26:49;;;;;;;7.9;4.1;;;;;;;18.8;47.2;101510;;;;
2021/06/16 01:30:49;;;;;;;7.9;4.1;;;;;;;19.0;44.3;101500;;;;
2021/06/16 01:34:49;;;;;;;7.9;4.1;;;;;;;18.8;45.6;101500;;;;
2021/06/16 01:38:49;;;;;;;7.9;4.1;;;;;;;18.7;46.5;101500;;;;
2021/06/16 01:40:49;;;;;;;7.9;4.1;;;;;;;18.9;45.5;101500;;;;
2021/06/16 01:42:49;;;;;;;7.9;4.1;;;;;;;18.6;47.4;101500;;;;
2021/06/16 01:44:49;;;;;;;5.3;4.5;;;;;;;18.9;45.3;101490;;;;
2021/06/16 01:46:49;;;;;;;5.3;4.5;;;;;;;18.7;45.5;101490;;;;
2021/06/16 01:50:49;;;;;;;5.3;4.5;;;;;;;18.9;45.2;101490;;;;
2021/06/16 01:52:49;;;;;;;5.3;4.5;;;;;;;18.6;47.2;101490;;;;
2021/06/16 01:56:49;;;;;;;5.3;4.5;;;;;;;18.7;46.4;101490;;;;
2021/06/16 01:58:49;;;;;;;5.3;4.5;;;;;;;18.5;47.6;101500;;;;
2021/06/16 02:04:49;;;;;;;7.7;4.5;;;;;;;18.6;46.8;101480;;;;
2021/06/16 02:06:49;;;;;;;7.7;4.5;;;;;;;18.3;47.1;101480;;;;
2021/06/16 02:08:49;;;;;;;7.7;4.5;;;;;;;18.5;46.1;101480;;;;
2021/06/16 02:10:49;;;;;;;7.7;4.5;;;;;;;18.3;48.2;101480;;;;
2021/06/16 02:12:49;;;;;;;7.7;4.5;;;;;;;18.5;45.8;101490;;;;
2021/06/16 02:14:49;;;;;;;7.7;4.5;;;;;;;18.4;47.3;101480;;;;
2021/06/16 02:18:49;;;;;;;7.7;4.5;;;;;;;18.5;46.5;101480;;;;
2021/06/16 02:22:49;;;;;;;7.7;4.5;;;;;;;18.4;47.4;101470;;;;
2021/06/16 02:26:49;;;;;;;7.0;4.3;;;;;;;18.3;47.3;101470;;;;
2021/06/16 02:32:49;;;;;;;7.0;4.3;;;;;;;18.4;47.2;101460;;;;
2021/06/16 02:34:49;;;;;;;7.0;4.3;;;;;;;18.2;47.0;101460;;;;
2021/06/16 02:40:49;;;;;;;7.0;4.3;;;;;;;18.1;48.5;101460;;;;
2021/06/16 02:44:50;;;;;;;8.3;4.6;;;;;;;18.2;47.4;101450;;;;
2021/06/16 02:46:50;;;;;;;8.3;4.6;;;;;;;18.3;46.6;101450;;;;
2021/06/16 02:48:49;;;;;;;8.3;4.6;;;;;;;18.1;47.8;101450;;;;
2021/06/16 02:50:49;;;;;;;8.3;4.6;;;;;;;18.2;47.2;101450;;;;
2021/06/16 02:56:49;;;;;;;8.3;4.6;;;;;;;18.1;48.0;101440;;;;
2021/06/16 02:58:49;;;;;;;8.3;4.6;;;;;;;18.2;46.9;101440;;;;
2021/06/16 03:00:49;;;;;;;8.3;4.6;;;;;;;18.0;48.9;101430;;;;
2021/06/16 03:02:49;;;;;;;8.3;4.6;;;;;;;18.1;47.4;101430;;;;
2021/06/16 03:06:49;;;;;;;6.2;4.8;;;;;;;18.0;47.5;101430;;;;
2021/06/16 03:08:49;;;;;;;6.2;4.8;;;;;;;18.1;47.8;101430;;;;
2021/06/16 03:10:49;;;;;;;6.2;4.8;;;;;;;18.0;47.6;101430;;;;
2021/06/16 03:22:50;;;;;;;6.2;4.8;;;;;;;17.9;47.4;101430;;;;
2021/06/16 03:24:49;;;;;;;10.0;4.8;;;;;;;18.0;47.8;101430;;;;
2021/06/16 03:28:49;;;;;;;10.0;4.8;;;;;;;17.9;47.9;101440;;;;
2021/06/16 03:34:49;;;;;;;10.0;4.8;;;;;;;18.0;48.0;101430;;;;
2021/06/16 03:38:49;;;;;;;10.0;4.8;;;;;;;17.9;47.4;101420;;;;
2021/06/16 03:40:49;;;;;;;10.0;4.8;;;;;;;18.0;48.0;101420;;;;
2021/06/16 03:42:49;;;;;;;10.0;4.8;;;;;;;17.9;48.1;101420;;;;
2021/06/16 03:52:49;;;;;;;9.2;5.4;;;;;;;18.0;47.4;101410;;;;
2021/06/16 03:54:49;;;;;;;9.2;5.4;;;;;;;17.9;48.9;101410;;;;
2021/06/16 03:56:49;;;;;;;9.2;5.4;;;;;;;17.8;48.3;101410;;;;
2021/06/16 04:02:49;;;;;;;9.2;5.4;;;;;;;18.0;48.1;101410;;;;
2021/06/16 04:04:49;;;;;;;8.8;5.6;;;;;;;17.9;47.8;101410;;;;
2021/06/16 04:08:49;;;;;;;8.8;5.6;;;;;;;17.8;49.1;101400;;;;
2021/06/16 04:10:49;;;;;;;8.8;5.6;;;;;;;17.7;49.1;101400;;;;
2021/06/16 04:12:50;;;;;;;8.8;5.6;;;;;;;17.9;48.1;101400;;;;
2021/06/16 04:14:49;;;;;;;8.8;5.6;;;;;;;17.8;49.4;101400;;;;
2021/06/16 04:18:49;;;;;;;8.8;5.6;;;;;;;17.9;48.6;101390;;;;
2021/06/16 04:20:49;;;;;;;8.8;5.6;;;;;;;17.8;48.6;101400;;;;
2021/06/16 04:22:49;;;;;;;8.8;5.6;;;;;;;17.9;48.6;101390;;;;
2021/06/16 04:30:49;;;;;;;8.7;5.4;;;;;;;18.0;48.5;101390;;;;
2021/06/16 04:36:49;;;;;;;8.7;5.4;;;;;;;17.8;49.7;101390;;;;
2021/06/16 04:38:52;;;;;;;8.7;5.4;;;;;;;17.9;49.4;101390;;;;
2021/06/16 04:40:49;;;;;;;8.7;5.4;;;;;;;18.0;49.4;101390;;;;
2021/06/16 04:44:49;;;;;;;9.9;6.1;;;;;;;18.1;49.3;101390;;;;
2021/06/16 04:46:49;;;;;;;9.9;6.1;;;;;;;18.0;49.8;101380;;;;
2021/06/16 04:50:49;;;;;;;9.9;6.1;;;;;;;18.1;49.4;101380;;;;
2021/06/16 04:54:49;;;;;;;9.9;6.1;;;;;;;18.0;49.3;101380;;;;
2021/06/16 04:56:49;;;;;;;9.9;6.1;;;;;;;18.1;50.9;101380;;;;
2021/06/16 04:58:49;;;;;;;9.9;6.1;;;;;;;18.2;49.0;101370;;;;
2021/06/16 05:00:49;;;;;;;9.9;6.1;;;;;;;18.1;50.4;101370;;;;
2021/06/16 05:04:49;;;;;;;6.9;5.9;;;;;;;18.0;49.8;101370;;;;
2021/06/16 05:06:51;;;;;;;6.9;5.9;;;;;;;18.3;49.8;101370;;;;
2021/06/16 05:08:49;;;;;;;6.9;5.9;;;;;;;18.2;49.7;101370;;;;
2021/06/16 05:10:49;;;;;;;6.9;5.9;;;;;;;18.4;49.3;101360;;;;
2021/06/16 05:16:49;;;;;;;6.9;5.9;;;;;;;18.3;50.5;101370;;;;
2021/06/16 05:18:50;;;;;;;6.9;5.9;;;;;;;18.4;49.4;101360;;;;
2021/06/16 05:22:50;;;;;;;6.9;5.9;;;;;;;18.5;48.7;101360;;;;
2021/06/16 05:28:49;;;;;;;8.3;6.9;;;;;;;18.7;49.7;101360;;;;
2021/06/16 05:30:49;;;;;;;8.3;6.9;;;;;;;18.6;49.8;101360;;;;
2021/06/16 05:32:49;;;;;;;8.3;6.9;;;;;;;18.7;49.0;101360;;;;
2021/06/16 05:34:49;;;;;;;8.3;6.9;;;;;;;18.9;50.6;101360;;;;
2021/06/16 05:36:50;;;;;;;8.3;6.9;;;;;;;18.7;51.1;101360;;;;
2021/06/16 05:38:49;;;;;;;8.3;6.9;;;;;;;18.8;50.0;101360;;;;
2021/06/16 05:40:49;;;;;;;8.3;6.9;;;;;;;18.9;49.9;101350;;;;
2021/06/16 05:46:49;;;;;;;10.9;7.4;;;;;;;19.1;50.2;101350;;;;
2021/06/16 05:48:49;;;;;;;10.9;7.4;;;;;;;19.2;49.3;101350;;;;
2021/06/16 05:54:49;;;;;;;10.9;7.4;;;;;;;19.3;49.6;101350;;;;
2021/06/16 05:56:49;;;;;;;10.9;7.4;;;;;;;19.4;50.1;101350;;;;
2021/06/16 05:58:49;;;;;;;10.9;7.4;;;;;;;19.6;48.6;101350;;;;
2021/06/16 06:00:49;;;;;;;10.9;7.4;;;;;;;19.7;49.7;101350;;;;
2021/06/16 06:04:49;;;;;;;11.7;6.6;;;;;;;19.8;49.9;101340;;;;
2021/06/16 06:06:50;;;;;;;11.7;6.6;;;;;;;19.7;49.9;101340;;;;
2021/06/16 06:08:49;;;;;;;11.7;6.6;;;;;;;19.8;49.6;101340;;;;
2021/06/16 06:10:49;;;;;;;11.7;6.6;;;;;;;20.0;49.6;101340;;;;
2021/06/16 06:14:49;;;;;;;11.7;6.6;;;;;;;20.2;49.3;101340;;;;
2021/06/16 06:18:49;;;;;;;11.7;6.6;;;;;;;20.3;49.0;101330;;;;
2021/06/16 06:20:49;;;;;;;11.7;6.6;;;;;;;20.5;49.0;101330;;;;
2021/06/16 06:26:49;;;;;;;10.2;6.6;;;;;;;20.6;48.6;101330;;;;
2021/06/16 06:28:49;;;;;;;10.2;6.6;;;;;;;20.7;47.1;101320;;;;
2021/06/16 06:36:49;;;;;;;10.2;6.6;;;;;;;20.8;48.2;101320;;;;
2021/06/16 06:38:49;;;;;;;10.2;6.6;;;;;;;20.9;48.7;101320;;;;
2021/06/16 06:40:50;;;;;;;10.2;6.6;;;;;;;21.0;48.1;101320;;;;
2021/06/16 06:42:49;;;;;;;10.2;6.6;;;;;;;21.1;48.0;101320;;;;
2021/06/16 06:46:49;;;;;;;9.7;6.3;;;;;;;21.2;48.0;101310;;;;
2021/06/16 06:48:49;;;;;;;9.7;6.3;;;;;;;21.1;48.4;101310;;;;
2021/06/16 06:50:50;;;;;;;9.7;6.3;;;;;;;21.2;48.1;101310;;;;
2021/06/16 06:52:49;;;;;;;9.7;6.3;;;;;;;21.4;47.5;101310;;;;
2021/06/16 06:54:49;;;;;;;9.7;6.3;;;;;;;21.5;47.1;101300;;;;
2021/06/16 06:58:49;;;;;;;9.7;6.3;;;;;;;21.8;46.8;101290;;;;
2021/06/16 07:02:49;;;;;;;7.8;5.7;;;;;;;22.1;46.4;101290;;;;
2021/06/16 07:06:50;;;;;;;7.8;5.7;;;;;;;22.2;45.6;101280;;;;
2021/06/16 07:10:49;;;;;;;7.8;5.7;;;;;;;22.4;45.2;101280;;;;
2021/06/16 07:12:50;;;;;;;7.8;5.7;;;;;;;22.5;45.8;101270;;;;
2021/06/16 07:14:52;;;;;;;7.8;5.7;;;;;;;22.7;45.6;101270;;;;
2021/06/16 07:16:50;;;;;;;7.8;5.7;;;;;;;22.5;45.6;101270;;;;
2021/06/16 07:18:51;;;;;;;7.8;5.7;;;;;;;22.8;45.1;101280;;;;
2021/06/16 07:22:49;;;;;;;7.5;5.0;;;;;;;23.0;44.5;101270;;;;
2021/06/16 07:26:49;;;;;;;7.5;5.0;;;;;;;22.9;44.1;101260;;;;
2021/06/16 07:28:49;;;;;;;7.5;5.0;;;;;;;22.8;44.7;101260;;;;
2021/06/16 07:30:50;;;;;;;7.5;5.0;;;;;;;23.0;43.6;101260;;;;
2021/06/16 07:32:49;;;;;;;7.5;5.0;;;;;;;23.1;43.2;101260;;;;
2021/06/16 07:34:49;;;;;;;7.5;5.0;;;;;;;23.0;43.1;101260;;;;
2021/06/16 07:36:50;;;;;;;7.5;5.0;;;;;;;23.2;42.5;101260;;;;
2021/06/16 07:38:49;;;;;;;7.5;5.0;;;;;;;23.3;42.8;101250;;;;
2021/06/16 07:42:49;;;;;;;8.0;3.8;;;;;;;23.6;41.4;101250;;;;
2021/06/16 07:44:49;;;;;;;8.0;3.8;;;;;;;23.7;41.4;101250;;;;
2021/06/16 07:48:50;;;;;;;8.0;3.8;;;;;;;23.6;40.7;101250;;;;
2021/06/16 07:50:49;;;;;;;8.0;3.8;;;;;;;23.4;41.0;101250;;;;
2021/06/16 07:52:49;;;;;;;8.0;3.8;;;;;;;23.6;41.3;101240;;;;
2021/06/16 07:54:49;;;;;;;8.0;3.8;;;;;;;23.8;40.6;101240;;;;
2021/06/16 07:56:49;;;;;;;8.0;3.8;;;;;;;24.0;40.0;101240;;;;
2021/06/16 07:58:49;;;;;;;8.0;3.8;;;;;;;24.1;39.3;101240;;;;
2021/06/16 08:00:49;;;;;;;8.0;3.8;;;;;;;23.8;39.5;101240;;;;
2021/06/16 08:04:49;;;;;;;6.8;3.3;;;;;;;24.0;39.4;101240;;;;
2021/06/16 08:06:50;;;;;;;6.8;3.3;;;;;;;24.2;39.7;101240;;;;
2021/06/16 08:08:49;;;;;;;6.8;3.3;;;;;;;24.4;39.0;101240;;;;
2021/06/16 08:10:49;;;;;;;6.8;3.3;;;;;;;24.2;38.9;101230;;;;
2021/06/16 08:14:49;;;;;;;6.8;3.3;;;;;;;24.3;39.1;101240;;;;
2021/06/16 08:16:49;;;;;;;6.8;3.3;;;;;;;24.5;38.8;101240;;;;
2021/06/16 08:22:49;;;;;;;6.6;3.0;;;;;;;24.7;38.6;101240;;;;
2021/06/16 08:24:49;;;;;;;6.6;3.0;;;;;;;24.9;37.9;101230;;;;
2021/06/16 08:26:49;;;;;;;6.6;3.0;;;;;;;25.0;38.2;101240;;;;
2021/06/16 08:28:49;;;;;;;6.6;3.0;;;;;;;24.9;38.0;101230;;;;
2021/06/16 08:30:49;;;;;;;6.6;3.0;;;;;;;25.0;38.0;101230;;;;
2021/06/16 08:32:50;;;;;;;6.6;3.0;;;;;;;25.1;37.8;101220;;;;
2021/06/16 08:34:49;;;;;;;6.6;3.0;;;;;;;25.0;37.7;101220;;;;
2021/06/16 08:36:53;;;;;;;6.6;3.0;;;;;;;25.1;37.9;101220;;;;
2021/06/16 08:38:49;;;;;;;6.6;3.0;;;;;;;25.0;37.6;101230;;;;
2021/06/16 08:40:49;;;;;;;6.6;3.0;;;;;;;25.2;37.6;101220;;;;
2021/06/16 08:42:49;;;;;;;7.1;3.3;;;;;;;25.1;37.3;101220;;;;
2021/06/16 08:44:49;;;;;;;7.1;3.3;;;;;;;25.0;37.9;101220;;;;
2021/06/16 08:48:49;;;;;;;7.1;3.3;;;;;;;25.2;37.7;101210;;;;
2021/06/16 08:50:49;;;;;;;7.1;3.3;;;;;;;25.3;37.9;101210;;;;
2021/06/16 08:52:49;;;;;;;7.1;3.3;;;;;;;25.2;37.6;101210;;;;
2021/06/16 08:54:49;;;;;;;7.1;3.3;;;;;;;25.3;37.3;101200;;;;
2021/06/16 08:56:49;;;;;;;7.1;3.3;;;;;;;25.6;37.1;101200;;;;
2021/06/16 08:58:52;;;;;;;7.1;3.3;;;;;;;25.5;37.3;101200;;;;
2021/06/16 09:00:49;;;;;;;7.1;3.3;;;;;;;25.4;37.3;101190;;;;
2021/06/16 09:02:49;;;;;;;4.6;3.3;;;;;;;25.5;37.3;101190;;;;
2021/06/16 09:04:50;;;;;;;4.6;3.3;;;;;;;25.6;37.6;101190;;;;
2021/06/16 09:06:49;;;;;;;4.6;3.3;;;;;;;25.8;37.4;101190;;;;
2021/06/16 09:08:50;;;;;;;4.6;3.3;;;;;;;26.0;37.9;101190;;;;
2021/06/16 09:10:49;;;;;;;4.6;3.3;;;;;;;25.9;36.5;101190;;;;
2021/06/16 09:12:50;;;;;;;4.6;3.3;;;;;;;25.6;37.1;101190;;;;
2021/06/16 09:18:49;;;;;;;4.6;3.3;;;;;;;25.8;37.1;101190;;;;
2021/06/16 09:20:50;;;;;;;4.6;3.3;;;;;;;26.1;36.9;101190;;;;
2021/06/16 09:22:49;;;;;;;4.7;2.9;;;;;;;25.9;37.0;101190;;;;
2021/06/16 09:24:52;;;;;;;4.7;2.9;;;;;;;26.1;36.6;101190;;;;
2021/06/16 09:26:49;;;;;;;4.7;2.9;;;;;;;26.2;36.0;101190;;;;
2021/06/16 09:30:49;;;;;;;4.7;2.9;;;;;;;26.4;36.2;101180;;;;
2021/06/16 09:32:49;;;;;;;4.7;2.9;;;;;;;26.3;36.0;101180;;;;
2021/06/16 09:34:49;;;;;;;4.7;2.9;;;;;;;26.4;36.2;101190;;;;
2021/06/16 09:36:49;;;;;;;4.7;2.9;;;;;;;26.3;36.6;101190;;;;
2021/06/16 09:38:49;;;;;;;4.7;2.9;;;;;;;26.4;35.9;101190;;;;
2021/06/16 09:40:49;;;;;;;4.7;2.9;;;;;;;26.5;36.9;101180;;;;
2021/06/16 09:42:49;;;;;;;9.6;3.6;;;;;;;26.7;36.3;101180;;;;
2021/06/16 09:44:50;;;;;;;9.6;3.6;;;;;;;26.8;35.5;101180;;;;
2021/06/16 09:52:50;;;;;;;9.6;3.6;;;;;;;26.9;35.8;101170;;;;
2021/06/16 09:54:49;;;;;;;9.6;3.6;;;;;;;27.0;35.7;101170;;;;
2021/06/16 10:04:55;;;;;;;5.4;2.9;;;;;;;27.3;36.3;101150;;;;
2021/06/16 10:06:49;;;;;;;5.4;2.9;;;;;;;27.5;35.7;101150;;;;
2021/06/16 10:08:50;;;;;;;5.4;2.9;;;;;;;27.4;35.7;101150;;;;
2021/06/16 10:10:49;;;;;;;5.4;2.9;;;;;;;27.3;35.9;101150;;;;
2021/06/16 10:12:52;;;;;;;5.4;2.9;;;;;;;27.2;35.6;101150;;;;
2021/06/16 10:14:49;;;;;;;5.4;2.9;;;;;;;27.3;35.5;101150;;;;
2021/06/16 10:16:50;;;;;;;5.4;2.9;;;;;;;27.4;35.5;101150;;;;
2021/06/16 10:18:49;;;;;;;5.4;2.9;;;;;;;27.3;35.7;101140;;;;
2021/06/16 10:20:49;;;;;;;5.4;2.9;;;;;;;27.5;35.5;101140;;;;
2021/06/16 10:24:49;;;;;;;6.4;3.7;;;;;;;27.3;35.2;101140;;;;
2021/06/16 10:26:49;;;;;;;6.4;3.7;;;;;;;27.5;35.5;101140;;;;
2021/06/16 10:30:50;;;;;;;6.4;3.7;;;;;;;27.7;35.2;101140;;;;
2021/06/16 10:34:49;;;;;;;6.4;3.7;;;;;;;27.8;35.5;101140;;;;
2021/06/16 10:38:49;;;;;;;6.4;3.7;;;;;;;27.9;35.5;101140;;;;
2021/06/16 10:42:49;;;;;;;7.5;4.6;;;;;;;28.0;35.6;101140;;;;
2021/06/16 10:44:49;;;;;;;7.5;4.6;;;;;;;27.8;35.3;101140;;;;
2021/06/16 10:46:51;;;;;;;7.5;4.6;;;;;;;28.0;35.8;101150;;;;
2021/06/16 10:48:51;;;;;;;7.5;4.6;;;;;;;28.2;35.7;101140;;;;
2021/06/16 10:50:52;;;;;;;7.5;4.6;;;;;;;28.3;35.5;101140;;;;
2021/06/16 10:54:49;;;;;;;7.5;4.6;;;;;;;28.4;35.3;101140;;;;
2021/06/16 10:58:49;;;;;;;7.5;4.6;;;;;;;28.6;35.0;101130;;;;
2021/06/16 11:00:49;;;;;;;7.5;4.6;;;;;;;28.7;34.8;101130;;;;
2021/06/16 11:02:49;;;;;;;4.7;4.1;;;;;;;28.8;35.2;101130;;;;
2021/06/16 11:04:49;;;;;;;4.7;4.1;;;;;;;28.7;35.9;101130;;;;
2021/06/16 11:06:49;;;;;;;4.7;4.1;;;;;;;28.6;34.8;101130;;;;
2021/06/16 11:08:50;;;;;;;4.7;4.1;;;;;;;28.4;35.1;101120;;;;
2021/06/16 11:12:49;;;;;;;4.7;4.1;;;;;;;28.5;35.2;101120;;;;
2021/06/16 11:14:50;;;;;;;4.7;4.1;;;;;;;28.7;35.2;101120;;;;
2021/06/16 11:18:49;;;;;;;4.7;4.1;;;;;;;28.5;35.2;101120;;;;
2021/06/16 11:20:49;;;;;;;4.7;4.1;;;;;;;28.7;35.2;101110;;;;
2021/06/16 11:22:49;;;;;;;8.1;6.4;;;;;;;28.8;35.2;101110;;;;
2021/06/16 11:24:49;;;;;;;8.1;6.4;;;;;;;29.0;36.0;101100;;;;
2021/06/16 11:26:51;;;;;;;8.1;6.4;;;;;;;28.8;35.5;101100;;;;
2021/06/16 11:28:49;;;;;;;8.1;6.4;;;;;;;28.7;35.2;101090;;;;
2021/06/16 11:30:51;;;;;;;8.1;6.4;;;;;;;28.6;35.2;101090;;;;
2021/06/16 11:32:49;;;;;;;8.1;6.4;;;;;;;28.8;35.3;101090;;;;
2021/06/16 11:34:50;;;;;;;8.1;6.4;;;;;;;29.2;35.4;101080;;;;
2021/06/16 11:36:49;;;;;;;8.1;6.4;;;;;;;29.4;35.4;101080;;;;
2021/06/16 11:38:49;;;;;;;8.1;6.4;;;;;;;29.6;34.9;101080;;;;
2021/06/16 11:40:49;;;;;;;8.1;6.4;;;;;;;29.4;34.2;101080;;;;
2021/06/16 11:42:49;;;;;;;11.5;6.5;;;;;;;29.7;35.4;101070;;;;
2021/06/16 11:44:52;;;;;;;11.5;6.5;;;;;;;29.6;34.4;101070;;;;
2021/06/16 11:46:50;;;;;;;11.5;6.5;;;;;;;29.5;35.0;101070;;;;
2021/06/16 11:52:49;;;;;;;11.5;6.5;;;;;;;29.8;35.8;101060;;;;
2021/06/16 11:54:49;;;;;;;11.5;6.5;;;;;;;29.6;34.2;101070;;;;
2021/06/16 11:58:49;;;;;;;11.5;6.5;;;;;;;29.9;34.7;101060;;;;
2021/06/16 12:00:50;;;;;;;11.5;6.5;;;;;;;29.8;34.5;101060;;;;
2021/06/16 12:02:49;;;;;;;9.9;7.5;;;;;;;29.9;34.2;101060;;;;
2021/06/16 12:04:50;;;;;;;9.9;7.5;;;;;;;29.8;34.4;101060;;;;
2021/06/16 12:08:49;;;;;;;9.9;7.5;;;;;;;29.9;35.1;101050;;;;
2021/06/16 12:10:50;;;;;;;9.9;7.5;;;;;;;29.5;34.2;101050;;;;
2021/06/16 12:12:50;;;;;;;9.9;7.5;;;;;;;29.8;35.1;101050;;;;
2021/06/16 12:14:49;;;;;;;9.9;7.5;;;;;;;30.1;35.9;101040;;;;
2021/06/16 12:16:50;;;;;;;9.9;7.5;;;;;;;30.3;34.0;101050;;;;
2021/06/16 12:18:49;;;;;;;9.9;7.5;;;;;;;30.4;34.7;101050;;;;
2021/06/16 12:20:50;;;;;;;9.9;7.5;;;;;;;30.3;35.1;101050;;;;
2021/06/16 12:22:50;;;;;;;9.0;7.6;;;;;;;30.5;33.9;101040;;;;
2021/06/16 12:26:49;;;;;;;9.0;7.6;;;;;;;30.7;34.2;101040;;;;
2021/06/16 12:30:49;;;;;;;9.0;7.6;;;;;;;31.0;35.2;101030;;;;
2021/06/16 12:36:49;;;;;;;9.0;7.6;;;;;;;31.3;33.5;101030;;;;
2021/06/16 12:40:50;;;;;;;9.0;7.6;;;;;;;31.4;33.6;101020;;;;
2021/06/16 12:42:50;;;;;;;9.8;8.8;;;;;;;31.2;33.0;101020;;;;
2021/06/16 12:46:50;;;;;;;9.8;8.8;;;;;;;31.4;34.3;101020;;;;
2021/06/16 12:50:49;;;;;;;9.8;8.8;;;;;;;31.5;35.1;101020;;;;
2021/06/16 12:58:49;;;;;;;9.8;8.8;;;;;;;31.6;32.8;101010;;;;
2021/06/16 13:02:50;;;;;;;8.6;7.7;;;;;;;31.7;33.4;101000;;;;
2021/06/16 13:04:50;;;;;;;8.6;7.7;;;;;;;31.6;32.8;100990;;;;
2021/06/16 13:06:49;;;;;;;8.6;7.7;;;;;;;32.0;33.2;101000;;;;
2021/06/16 13:08:51;;;;;;;8.6;7.7;;;;;;;32.1;34.0;100990;;;;
2021/06/16 13:10:51;;;;;;;8.6;7.7;;;;;;;32.2;32.8;100990;;;;
2021/06/16 13:14:49;;;;;;;8.6;7.7;;;;;;;32.1;32.3;100990;;;;
2021/06/16 13:16:50;;;;;;;8.6;7.7;;;;;;;32.2;31.0;100980;;;;
2021/06/16 13:18:50;;;;;;;8.6;7.7;;;;;;;32.5;31.8;100980;;;;
2021/06/16 13:22:49;;;;;;;7.5;6.7;;;;;;;32.6;31.0;100980;;;;
2021/06/16 13:24:49;;;;;;;7.5;6.7;;;;;;;32.3;30.9;100970;;;;
2021/06/16 13:26:49;;;;;;;7.5;6.7;;;;;;;32.5;31.6;100980;;;;
2021/06/16 13:28:49;;;;;;;7.5;6.7;;;;;;;32.6;32.6;100980;;;;
2021/06/16 13:32:50;;;;;;;7.5;6.7;;;;;;;32.7;34.0;100970;;;;
2021/06/16 13:34:50;;;;;;;7.5;6.7;;;;;;;33.0;33.9;100960;;;;
2021/06/16 13:36:49;;;;;;;7.5;6.7;;;;;;;33.1;30.3;100960;;;;
2021/06/16 13:38:50;;;;;;;7.5;6.7;;;;;;;33.0;33.9;100960;;;;
2021/06/16 13:40:49;;;;;;;7.5;6.7;;;;;;;33.3;31.9;100960;;;;
2021/06/16 13:42:50;;;;;;;7.8;6.7;;;;;;;33.4;31.8;100960;;;;
2021/06/16 13:44:49;;;;;;;7.8;6.7;;;;;;;33.2;32.0;100960;;;;
2021/06/16 13:46:49;;;;;;;7.8;6.7;;;;;;;33.0;30.5;100960;;;;
2021/06/16 13:48:50;;;;;;;7.8;6.7;;;;;;;33.3;33.2;100960;;;;
2021/06/16 13:54:50;;;;;;;7.8;6.7;;;;;;;33.4;31.3;100940;;;;
2021/06/16 14:02:49;;;;;;;8.7;7.8;;;;;;;33.3;32.7;100940;;;;
2021/06/16 14:06:49;;;;;;;8.7;7.8;;;;;;;33.0;31.3;100940;;;;
2021/06/16 14:10:50;;;;;;;8.7;7.8;;;;;;;33.3;30.3;100930;;;;
2021/06/16 14:12:50;;;;;;;8.7;7.8;;;;;;;33.7;31.4;100930;;;;
2021/06/16 14:14:50;;;;;;;8.7;7.8;;;;;;;33.5;29.3;100930;;;;
2021/06/16 14:16:49;;;;;;;8.7;7.8;;;;;;;33.9;31.0;100930;;;;
2021/06/16 14:18:50;;;;;;;8.7;7.8;;;;;;;33.6;30.8;100930;;;;
2021/06/16 14:22:50;;;;;;;8.3;6.8;;;;;;;34.0;30.4;100930;;;;
2021/06/16 14:24:50;;;;;;;8.3;6.8;;;;;;;34.2;28.1;100930;;;;
2021/06/16 14:26:50;;;;;;;8.3;6.8;;;;;;;34.5;29.1;100930;;;;
2021/06/16 14:28:51;;;;;;;8.3;6.8;;;;;;;34.7;31.0;100920;;;;
2021/06/16 14:30:51;;;;;;;8.3;6.8;;;;;;;34.4;28.1;100920;;;;
2021/06/16 14:32:50;;;;;;;8.3;6.8;;;;;;;34.3;29.9;100920;;;;
2021/06/16 14:34:50;;;;;;;8.3;6.8;;;;;;;34.1;31.7;100920;;;;
2021/06/16 14:42:50;;;;;;;8.0;7.2;;;;;;;34.3;29.6;100920;;;;
2021/06/16 14:44:50;;;;;;;8.0;7.2;;;;;;;34.0;27.4;100920;;;;
2021/06/16 14:46:50;;;;;;;8.0;7.2;;;;;;;33.5;32.6;100920;;;;
2021/06/16 14:48:54;;;;;;;8.0;7.2;;;;;;;34.3;28.9;100920;;;;
2021/06/16 14:52:50;;;;;;;8.0;7.2;;;;;;;35.0;27.3;100920;;;;
2021/06/16 14:54:50;;;;;;;8.0;7.2;;;;;;;35.5;28.1;100910;;;;
2021/06/16 14:56:50;;;;;;;8.0;7.2;;;;;;;35.6;28.6;100910;;;;
2021/06/16 14:58:50;;;;;;;8.0;7.2;;;;;;;35.4;27.1;100910;;;;
2021/06/16 15:02:50;;;;;;;7.3;6.5;;;;;;;35.7;30.0;100920;;;;
2021/06/16 15:04:50;;;;;;;7.3;6.5;;;;;;;35.6;27.2;100910;;;;
2021/06/16 15:06:50;;;;;;;7.3;6.5;;;;;;;35.4;28.6;100900;;;;
2021/06/16 15:08:50;;;;;;;7.3;6.5;;;;;;;35.6;28.0;100910;;;;
2021/06/16 15:10:50;;;;;;;7.3;6.5;;;;;;;35.5;27.1;100910;;;;
2021/06/16 15:14:50;;;;;;;7.3;6.5;;;;;;;35.7;27.8;100910;;;;
2021/06/16 15:16:50;;;;;;;7.3;6.5;;;;;;;36.1;28.0;100900;;;;
2021/06/16 15:18:50;;;;;;;7.3;6.5;;;;;;;36.0;27.0;100900;;;;
2021/06/16 15:20:50;;;;;;;7.3;6.5;;;;;;;36.2;26.0;100900;;;;
2021/06/16 15:24:50;;;;;;;7.3;5.7;;;;;;;36.5;26.0;100900;;;;
2021/06/16 15:26:50;;;;;;;7.3;5.7;;;;;;;37.0;24.6;100890;;;;
2021/06/16 15:28:50;;;;;;;7.3;5.7;;;;;;;37.2;24.7;100890;;;;
2021/06/16 15:30:50;;;;;;;7.3;5.7;;;;;;;37.5;24.1;100890;;;;
2021/06/16 15:32:50;;;;;;;7.3;5.7;;;;;;;37.4;23.7;100880;;;;
2021/06/16 15:34:50;;;;;;;7.3;5.7;;;;;;;37.7;24.4;100880;;;;
2021/06/16 15:36:50;;;;;;;7.3;5.7;;;;;;;38.0;23.5;100890;;;;
2021/06/16 15:38:50;;;;;;;7.3;5.7;;;;;;;37.8;24.0;100880;;;;
2021/06/16 15:40:50;;;;;;;7.3;5.7;;;;;;;38.0;24.8;100880;;;;
2021/06/16 15:42:50;;;;;;;5.4;4.9;;;;;;;37.8;23.7;100880;;;;
2021/06/16 15:44:50;;;;;;;5.4;4.9;;;;;;;38.2;23.1;100880;;;;
2021/06/16 15:48:50;;;;;;;5.4;4.9;;;;;;;38.1;22.1;100880;;;;
2021/06/16 15:50:50;;;;;;;5.4;4.9;;;;;;;38.0;22.7;100870;;;;
2021/06/16 15:52:51;;;;;;;5.4;4.9;;;;;;;38.2;21.0;100870;;;;
2021/06/16 15:54:50;;;;;;;5.4;4.9;;;;;;;38.4;22.0;100870;;;;
2021/06/16 15:56:50;;;;;;;5.4;4.9;;;;;;;38.5;23.0;100870;;;;
2021/06/16 15:58:50;;;;;;;5.4;4.9;;;;;;;38.6;21.5;100870;;;;
2021/06/16 16:00:59;;;;;;;5.4;4.9;;;;;;;38.4;21.6;100870;;;;
2021/06/16 16:02:50;;;;;;;6.6;5.0;;;;;;;38.8;21.8;100870;;;;
2021/06/16 16:04:50;;;;;;;6.6;5.0;;;;;;;39.2;21.2;100860;;;;
2021/06/16 16:10:50;;;;;;;6.6;5.0;;;;;;;38.7;21.7;100870;;;;
2021/06/16 16:16:50;;;;;;;6.6;5.0;;;;;;;38.8;21.3;100850;;;;
2021/06/16 16:18:50;;;;;;;6.6;5.0;;;;;;;38.1;20.3;100850;;;;
2021/06/16 16:20:50;;;;;;;6.6;5.0;;;;;;;38.8;21.0;100860;;;;
2021/06/16 16:24:50;;;;;;;5.6;3.8;;;;;;;38.7;19.8;100860;;;;
2021/06/16 16:28:50;;;;;;;5.6;3.8;;;;;;;38.8;19.5;100860;;;;
2021/06/16 16:30:51;;;;;;;5.6;3.8;;;;;;;38.5;20.0;100850;;;;
2021/06/16 16:32:50;;;;;;;5.6;3.8;;;;;;;38.9;20.0;100850;;;;
2021/06/16 16:34:50;;;;;;;5.6;3.8;;;;;;;38.8;20.4;100850;;;;
2021/06/16 16:36:50;;;;;;;5.6;3.8;;;;;;;39.1;19.4;100850;;;;
2021/06/16 16:38:50;;;;;;;5.6;3.8;;;;;;;39.2;19.8;100850;;;;
2021/06/16 16:40:50;;;;;;;5.6;3.8;;;;;;;39.0;19.7;100850;;;;
2021/06/16 16:44:50;;;;;;;4.3;3.9;;;;;;;39.3;19.6;100850;;;;
2021/06/16 16:46:50;;;;;;;4.3;3.9;;;;;;;39.4;19.1;100850;;;;
2021/06/16 16:48:50;;;;;;;4.3;3.9;;;;;;;39.3;19.2;100840;;;;
2021/06/16 16:50:50;;;;;;;4.3;3.9;;;;;;;39.2;19.3;100840;;;;
2021/06/16 16:52:50;;;;;;;4.3;3.9;;;;;;;39.3;19.0;100840;;;;
2021/06/16 16:54:50;;;;;;;4.3;3.9;;;;;;;39.1;20.2;100840;;;;
2021/06/16 16:56:50;;;;;;;4.3;3.9;;;;;;;39.5;18.7;100840;;;;
2021/06/16 16:58:50;;;;;;;4.3;3.9;;;;;;;39.2;19.7;100840;;;;
2021/06/16 17:00:50;;;;;;;4.3;3.9;;;;;;;38.8;19.6;100840;;;;
2021/06/16 17:02:50;;;;;;;4.7;4.2;;;;;;;39.1;20.0;100840;;;;
2021/06/16 17:04:50;;;;;;;4.7;4.2;;;;;;;39.5;19.6;100840;;;;
2021/06/16 17:06:50;;;;;;;4.7;4.2;;;;;;;39.1;19.2;100840;;;;
2021/06/16 17:08:50;;;;;;;4.7;4.2;;;;;;;39.4;20.1;100850;;;;
2021/06/16 17:16:50;;;;;;;4.7;4.2;;;;;;;39.2;19.0;100850;;;;
2021/06/16 17:18:50;;;;;;;4.7;4.2;;;;;;;38.8;19.0;100850;;;;
2021/06/16 17:20:50;;;;;;;4.7;4.2;;;;;;;38.5;19.6;100850;;;;
2021/06/16 17:22:51;;;;;;;6.1;3.8;;;;;;;38.9;20.9;100850;;;;
2021/06/16 17:24:50;;;;;;;6.1;3.8;;;;;;;38.7;20.5;100850;;;;
2021/06/16 17:26:50;;;;;;;6.1;3.8;;;;;;;38.9;19.0;100850;;;;
2021/06/16 17:28:50;;;;;;;6.1;3.8;;;;;;;39.0;19.6;100850;;;;
2021/06/16 17:32:50;;;;;;;6.1;3.8;;;;;;;39.1;18.5;100840;;;;
2021/06/16 17:34:50;;;;;;;6.1;3.8;;;;;;;39.0;19.2;100840;;;;
2021/06/16 17:36:50;;;;;;;6.1;3.8;;;;;;;38.5;19.6;100840;;;;
2021/06/16 17:38:50;;;;;;;6.1;3.8;;;;;;;38.9;18.9;100840;;;;
2021/06/16 17:40:50;;;;;;;6.1;3.8;;;;;;;39.0;19.1;100840;;;;
2021/06/16 17:42:50;;;;;;;8.5;5.2;;;;;;;38.8;19.4;100840;;;;
2021/06/16 17:44:50;;;;;;;8.5;5.2;;;;;;;38.7;19.6;100840;;;;
2021/06/16 17:46:50;;;;;;;8.5;5.2;;;;;;;38.6;19.4;100850;;;;
2021/06/16 17:48:50;;;;;;;8.5;5.2;;;;;;;38.2;19.6;100850;;;;
2021/06/16 17:50:50;;;;;;;8.5;5.2;;;;;;;38.3;19.5;100850;;;;
2021/06/16 17:52:50;;;;;;;8.5;5.2;;;;;;;38.0;19.9;100850;;;;
2021/06/16 17:54:50;;;;;;;8.5;5.2;;;;;;;37.8;19.4;100850;;;;